sensor_id;sensor_type;location;lat;lon;timestamp;pressure;altitude;pressure_sealevel;temperature;humidity
5954;BME280;3002;42.642;24.812;2023-05-22T00:01:39;96167.19;;;18.92;72.23
5954;BME280;3002;42.642;24.812;2023-05-22T00:04:07;96169.19;;;18.79;71.92
5954;BME280;3002;42.642;24.812;2023-05-22T00:06:32;96161.53;;;18.69;73.99
5954;BME280;3002;42.642;24.812;2023-05-22T00:08:58;96172.69;;;18.80;74.30
5954;BME280;3002;42.642;24.812;2023-05-22T00:11:24;96161.41;;;18.93;73.33
5954;BME280;3002;42.642;24.812;2023-05-22T00:13:50;96148.59;;;18.78;73.90
5954;BME280;3002;42.642;24.812;2023-05-22T00:16:15;96141.34;;;18.98;74.69
5954;BME280;3002;42.642;24.812;2023-05-22T00:18:41;96151.75;;;18.80;76.58
5954;BME280;3002;42.642;24.812;2023-05-22T00:21:10;96151.00;;;18.95;74.60
5954;BME280;3002;42.642;24.812;2023-05-22T00:23:35;96132.31;;;18.94;73.11
5954;BME280;3002;42.642;24.812;2023-05-22T00:26:01;96138.44;;;18.91;73.41
5954;BME280;3002;42.642;24.812;2023-05-22T00:28:27;96139.53;;;18.46;73.82
5954;BME280;3002;42.642;24.812;2023-05-22T00:30:53;96136.69;;;18.55;75.53
5954;BME280;3002;42.642;24.812;2023-05-22T00:33:18;96142.81;;;18.80;73.35
5954;BME280;3002;42.642;24.812;2023-05-22T00:35:43;96155.94;;;18.09;75.71
5954;BME280;3002;42.642;24.812;2023-05-22T00:38:26;96146.66;;;18.10;75.78
5954;BME280;3002;42.642;24.812;2023-05-22T00:40:52;96148.63;;;18.66;75.28
5954;BME280;3002;42.642;24.812;2023-05-22T00:43:18;96152.91;;;18.95;73.24
5954;BME280;3002;42.642;24.812;2023-05-22T00:45:43;96148.69;;;18.82;75.26
5954;BME280;3002;42.642;24.812;2023-05-22T00:48:09;96151.03;;;18.67;77.35
5954;BME280;3002;42.642;24.812;2023-05-22T00:50:36;96156.47;;;18.67;76.63
5954;BME280;3002;42.642;24.812;2023-05-22T00:53:02;96158.69;;;18.78;75.65
5954;BME280;3002;42.642;24.812;2023-05-22T00:55:27;96158.94;;;18.60;76.33
5954;BME280;3002;42.642;24.812;2023-05-22T00:57:53;96169.78;;;18.73;75.49
5954;BME280;3002;42.642;24.812;2023-05-22T01:00:19;96156.66;;;18.75;75.21
5954;BME280;3002;42.642;24.812;2023-05-22T01:02:45;96161.66;;;18.60;74.14
5954;BME280;3002;42.642;24.812;2023-05-22T01:05:11;96167.19;;;18.64;74.49
5954;BME280;3002;42.642;24.812;2023-05-22T01:07:37;96169.16;;;18.51;79.64
5954;BME280;3002;42.642;24.812;2023-05-22T01:10:04;96165.69;;;18.38;77.69
5954;BME280;3002;42.642;24.812;2023-05-22T01:12:50;96162.03;;;18.46;77.99
5954;BME280;3002;42.642;24.812;2023-05-22T01:15:34;96169.19;;;18.39;79.31
5954;BME280;3002;42.642;24.812;2023-05-22T01:18:26;96162.25;;;18.13;80.95
5954;BME280;3002;42.642;24.812;2023-05-22T01:21:02;96160.16;;;18.35;76.23
5954;BME280;3002;42.642;24.812;2023-05-22T01:26:35;96155.59;;;18.51;79.25
5954;BME280;3002;42.642;24.812;2023-05-22T01:31:54;96167.59;;;18.50;78.06
5954;BME280;3002;42.642;24.812;2023-05-22T01:34:21;96150.63;;;18.53;79.48
5954;BME280;3002;42.642;24.812;2023-05-22T01:36:49;96155.31;;;18.68;77.89
5954;BME280;3002;42.642;24.812;2023-05-22T01:39:17;96149.63;;;18.74;78.17
5954;BME280;3002;42.642;24.812;2023-05-22T01:41:43;96145.53;;;18.80;76.99
5954;BME280;3002;42.642;24.812;2023-05-22T01:44:09;96144.13;;;18.86;76.57
5954;BME280;3002;42.642;24.812;2023-05-22T01:46:34;96138.88;;;18.65;77.46
5954;BME280;3002;42.642;24.812;2023-05-22T01:49:00;96136.53;;;18.35;79.51
5954;BME280;3002;42.642;24.812;2023-05-22T01:51:38;96142.97;;;18.59;78.33
5954;BME280;3002;42.642;24.812;2023-05-22T01:56:56;96146.22;;;18.77;77.65
5954;BME280;3002;42.642;24.812;2023-05-22T01:59:42;96141.06;;;18.71;76.97
5954;BME280;3002;42.642;24.812;2023-05-22T02:02:10;96145.69;;;18.59;78.57
5954;BME280;3002;42.642;24.812;2023-05-22T02:04:41;96150.44;;;18.62;80.18
5954;BME280;3002;42.642;24.812;2023-05-22T02:07:10;96144.75;;;18.39;83.59
5954;BME280;3002;42.642;24.812;2023-05-22T02:09:37;96147.78;;;18.50;82.50
5954;BME280;3002;42.642;24.812;2023-05-22T02:12:04;96146.09;;;18.45;81.44
5954;BME280;3002;42.642;24.812;2023-05-22T02:14:30;96140.25;;;18.59;79.61
5954;BME280;3002;42.642;24.812;2023-05-22T02:16:56;96147.44;;;18.51;79.19
5954;BME280;3002;42.642;24.812;2023-05-22T02:19:22;96147.91;;;18.41;82.33
5954;BME280;3002;42.642;24.812;2023-05-22T02:21:48;96135.19;;;18.57;76.32
5954;BME280;3002;42.642;24.812;2023-05-22T02:24:13;96126.66;;;18.43;76.74
5954;BME280;3002;42.642;24.812;2023-05-22T02:26:39;96130.38;;;18.79;75.34
5954;BME280;3002;42.642;24.812;2023-05-22T02:29:04;96141.09;;;18.47;75.40
5954;BME280;3002;42.642;24.812;2023-05-22T02:31:30;96140.38;;;18.62;75.51
5954;BME280;3002;42.642;24.812;2023-05-22T02:33:55;96141.81;;;18.44;74.62
5954;BME280;3002;42.642;24.812;2023-05-22T02:36:21;96157.19;;;18.12;73.96
5954;BME280;3002;42.642;24.812;2023-05-22T02:38:47;96142.47;;;18.13;71.93
5954;BME280;3002;42.642;24.812;2023-05-22T02:41:12;96150.94;;;18.52;70.85
5954;BME280;3002;42.642;24.812;2023-05-22T02:43:38;96139.03;;;18.56;70.62
5954;BME280;3002;42.642;24.812;2023-05-22T02:46:03;96168.41;;;18.38;70.02
5954;BME280;3002;42.642;24.812;2023-05-22T02:48:29;96142.38;;;18.09;70.88
5954;BME280;3002;42.642;24.812;2023-05-22T02:50:54;96160.91;;;18.07;71.75
5954;BME280;3002;42.642;24.812;2023-05-22T02:53:20;96152.94;;;18.27;70.86
5954;BME280;3002;42.642;24.812;2023-05-22T02:55:46;96166.00;;;18.49;70.31
5954;BME280;3002;42.642;24.812;2023-05-22T02:58:12;96161.97;;;18.43;71.14
5954;BME280;3002;42.642;24.812;2023-05-22T03:00:39;96157.38;;;18.19;72.54
5954;BME280;3002;42.642;24.812;2023-05-22T03:03:04;96142.84;;;18.39;71.64
5954;BME280;3002;42.642;24.812;2023-05-22T03:05:34;96155.06;;;18.33;75.64
5954;BME280;3002;42.642;24.812;2023-05-22T03:07:59;96152.47;;;18.37;74.88
5954;BME280;3002;42.642;24.812;2023-05-22T03:10:25;96132.81;;;17.87;76.40
5954;BME280;3002;42.642;24.812;2023-05-22T03:12:51;96139.44;;;18.02;75.37
5954;BME280;3002;42.642;24.812;2023-05-22T03:15:19;96127.53;;;18.19;74.19
5954;BME280;3002;42.642;24.812;2023-05-22T03:17:45;96141.69;;;18.12;75.86
5954;BME280;3002;42.642;24.812;2023-05-22T03:20:11;96152.81;;;17.95;78.49
5954;BME280;3002;42.642;24.812;2023-05-22T03:22:40;96139.63;;;17.81;80.47
5954;BME280;3002;42.642;24.812;2023-05-22T03:25:06;96133.59;;;17.39;78.09
5954;BME280;3002;42.642;24.812;2023-05-22T03:27:33;96145.47;;;17.34;78.53
5954;BME280;3002;42.642;24.812;2023-05-22T03:29:59;96151.69;;;17.35;78.76
5954;BME280;3002;42.642;24.812;2023-05-22T03:32:25;96151.78;;;17.63;77.43
5954;BME280;3002;42.642;24.812;2023-05-22T03:34:50;96153.13;;;17.69;82.98
5954;BME280;3002;42.642;24.812;2023-05-22T03:37:16;96147.81;;;17.97;75.54
5954;BME280;3002;42.642;24.812;2023-05-22T03:39:41;96146.59;;;17.95;77.02
5954;BME280;3002;42.642;24.812;2023-05-22T03:42:07;96146.66;;;18.10;75.82
5954;BME280;3002;42.642;24.812;2023-05-22T03:44:32;96155.31;;;18.28;75.53
5954;BME280;3002;42.642;24.812;2023-05-22T03:46:57;96145.47;;;18.36;73.29
5954;BME280;3002;42.642;24.812;2023-05-22T03:49:23;96146.66;;;18.51;73.33
5954;BME280;3002;42.642;24.812;2023-05-22T03:51:48;96153.03;;;18.70;73.36
5954;BME280;3002;42.642;24.812;2023-05-22T03:54:14;96158.25;;;18.91;71.84
5954;BME280;3002;42.642;24.812;2023-05-22T03:56:39;96146.88;;;18.17;75.88
5954;BME280;3002;42.642;24.812;2023-05-22T03:59:05;96159.63;;;18.17;74.59
5954;BME280;3002;42.642;24.812;2023-05-22T04:01:30;96159.69;;;18.45;73.18
5954;BME280;3002;42.642;24.812;2023-05-22T04:03:57;96164.50;;;18.52;74.33
5954;BME280;3002;42.642;24.812;2023-05-22T04:06:22;96166.63;;;18.30;74.27
5954;BME280;3002;42.642;24.812;2023-05-22T04:08:49;96164.91;;;18.38;74.64
5954;BME280;3002;42.642;24.812;2023-05-22T04:11:15;96171.16;;;18.66;73.96
5954;BME280;3002;42.642;24.812;2023-05-22T04:13:41;96156.59;;;18.87;72.67
5954;BME280;3002;42.642;24.812;2023-05-22T04:16:07;96146.16;;;18.61;73.31
5954;BME280;3002;42.642;24.812;2023-05-22T04:18:32;96157.00;;;18.89;75.28
5954;BME280;3002;42.642;24.812;2023-05-22T04:20:58;96155.72;;;18.98;76.71
5954;BME280;3002;42.642;24.812;2023-05-22T04:23:23;96147.94;;;18.97;77.94
5954;BME280;3002;42.642;24.812;2023-05-22T04:25:49;96150.31;;;18.70;78.63
5954;BME280;3002;42.642;24.812;2023-05-22T04:28:14;96149.06;;;18.96;79.60
5954;BME280;3002;42.642;24.812;2023-05-22T04:30:47;96150.13;;;19.07;76.71
5954;BME280;3002;42.642;24.812;2023-05-22T04:33:13;96151.34;;;19.41;76.03
5954;BME280;3002;42.642;24.812;2023-05-22T04:35:38;96156.09;;;19.29;76.53
5954;BME280;3002;42.642;24.812;2023-05-22T04:38:08;96159.03;;;18.92;77.76
5954;BME280;3002;42.642;24.812;2023-05-22T04:40:34;96153.28;;;19.09;74.50
5954;BME280;3002;42.642;24.812;2023-05-22T04:43:02;96152.78;;;19.51;73.76
5954;BME280;3002;42.642;24.812;2023-05-22T04:45:27;96157.50;;;19.86;72.46
5954;BME280;3002;42.642;24.812;2023-05-22T04:47:53;96157.13;;;20.22;72.13
5954;BME280;3002;42.642;24.812;2023-05-22T04:50:19;96152.09;;;20.05;72.23
5954;BME280;3002;42.642;24.812;2023-05-22T04:52:45;96160.78;;;20.46;70.44
5954;BME280;3002;42.642;24.812;2023-05-22T04:55:11;96159.13;;;21.03;65.58
5954;BME280;3002;42.642;24.812;2023-05-22T04:57:38;96167.06;;;21.54;63.18
5954;BME280;3002;42.642;24.812;2023-05-22T05:00:04;96162.09;;;21.36;61.11
5954;BME280;3002;42.642;24.812;2023-05-22T05:02:31;96166.47;;;21.41;60.52
5954;BME280;3002;42.642;24.812;2023-05-22T05:04:56;96165.81;;;21.05;62.76
5954;BME280;3002;42.642;24.812;2023-05-22T05:07:21;96176.00;;;22.30;59.36
5954;BME280;3002;42.642;24.812;2023-05-22T05:09:48;96169.97;;;22.44;59.11
5954;BME280;3002;42.642;24.812;2023-05-22T05:12:14;96178.94;;;22.14;59.29
5954;BME280;3002;42.642;24.812;2023-05-22T05:14:40;96180.44;;;22.42;57.24
5954;BME280;3002;42.642;24.812;2023-05-22T05:17:05;96160.09;;;21.83;57.00
5954;BME280;3002;42.642;24.812;2023-05-22T05:19:31;96177.28;;;22.10;57.23
5954;BME280;3002;42.642;24.812;2023-05-22T05:21:56;96181.78;;;21.99;58.22
5954;BME280;3002;42.642;24.812;2023-05-22T05:24:22;96176.22;;;22.44;57.84
5954;BME280;3002;42.642;24.812;2023-05-22T05:26:49;96179.47;;;22.87;56.60
5954;BME280;3002;42.642;24.812;2023-05-22T05:29:14;96177.28;;;22.70;55.65
5954;BME280;3002;42.642;24.812;2023-05-22T05:31:40;96174.34;;;21.96;57.40
5954;BME280;3002;42.642;24.812;2023-05-22T05:34:05;96186.69;;;22.73;56.73
5954;BME280;3002;42.642;24.812;2023-05-22T05:36:31;96184.38;;;23.08;56.67
5954;BME280;3002;42.642;24.812;2023-05-22T05:38:57;96186.63;;;22.99;56.40
5954;BME280;3002;42.642;24.812;2023-05-22T05:41:23;96193.16;;;22.91;56.74
5954;BME280;3002;42.642;24.812;2023-05-22T05:43:49;96189.91;;;23.12;57.04
5954;BME280;3002;42.642;24.812;2023-05-22T05:46:17;96181.78;;;22.85;57.44
5954;BME280;3002;42.642;24.812;2023-05-22T05:48:42;96184.09;;;22.23;60.09
5954;BME280;3002;42.642;24.812;2023-05-22T05:51:08;96199.22;;;22.43;59.44
5954;BME280;3002;42.642;24.812;2023-05-22T05:53:36;96189.84;;;23.08;58.74
5954;BME280;3002;42.642;24.812;2023-05-22T05:56:03;96195.53;;;23.67;57.23
5954;BME280;3002;42.642;24.812;2023-05-22T05:58:29;96199.53;;;23.76;56.36
5954;BME280;3002;42.642;24.812;2023-05-22T06:00:54;96193.91;;;23.62;56.85
5954;BME280;3002;42.642;24.812;2023-05-22T06:03:20;96191.75;;;23.41;51.47
5954;BME280;3002;42.642;24.812;2023-05-22T06:05:45;96198.25;;;23.67;50.32
5954;BME280;3002;42.642;24.812;2023-05-22T06:08:11;96194.63;;;24.00;50.86
5954;BME280;3002;42.642;24.812;2023-05-22T06:10:38;96199.53;;;23.80;48.97
5954;BME280;3002;42.642;24.812;2023-05-22T06:13:03;96205.66;;;23.63;48.89
5954;BME280;3002;42.642;24.812;2023-05-22T06:15:29;96202.06;;;23.99;46.43
5954;BME280;3002;42.642;24.812;2023-05-22T06:17:55;96204.38;;;24.63;46.03
5954;BME280;3002;42.642;24.812;2023-05-22T06:20:21;96207.41;;;25.31;46.88
5954;BME280;3002;42.642;24.812;2023-05-22T06:22:49;96203.09;;;25.41;47.87
5954;BME280;3002;42.642;24.812;2023-05-22T06:25:15;96201.56;;;25.72;45.14
5954;BME280;3002;42.642;24.812;2023-05-22T06:27:40;96220.00;;;23.97;43.97
5954;BME280;3002;42.642;24.812;2023-05-22T06:30:07;96211.38;;;25.91;41.93
5954;BME280;3002;42.642;24.812;2023-05-22T06:32:33;96204.34;;;25.89;41.75
5954;BME280;3002;42.642;24.812;2023-05-22T06:34:58;96205.06;;;26.36;39.70
5954;BME280;3002;42.642;24.812;2023-05-22T06:37:24;96205.09;;;26.29;38.38
5954;BME280;3002;42.642;24.812;2023-05-22T06:39:49;96190.59;;;26.11;39.29
5954;BME280;3002;42.642;24.812;2023-05-22T06:42:15;96215.69;;;26.45;39.71
5954;BME280;3002;42.642;24.812;2023-05-22T06:44:40;96202.94;;;26.90;39.26
5954;BME280;3002;42.642;24.812;2023-05-22T06:47:06;96201.72;;;26.99;36.73
5954;BME280;3002;42.642;24.812;2023-05-22T06:49:32;96203.13;;;26.40;37.60
5954;BME280;3002;42.642;24.812;2023-05-22T06:51:57;96206.28;;;26.18;37.36
5954;BME280;3002;42.642;24.812;2023-05-22T06:54:22;96208.63;;;25.62;38.31
5954;BME280;3002;42.642;24.812;2023-05-22T06:56:48;96208.59;;;25.48;40.07
5954;BME280;3002;42.642;24.812;2023-05-22T06:59:13;96200.03;;;25.81;38.67
5954;BME280;3002;42.642;24.812;2023-05-22T07:01:39;96203.16;;;26.01;37.89
5954;BME280;3002;42.642;24.812;2023-05-22T07:04:05;96209.03;;;25.96;39.26
5954;BME280;3002;42.642;24.812;2023-05-22T07:06:33;96205.47;;;25.63;40.83
5954;BME280;3002;42.642;24.812;2023-05-22T07:09:03;96218.09;;;25.86;39.48
5954;BME280;3002;42.642;24.812;2023-05-22T07:11:29;96207.84;;;26.11;39.55
5954;BME280;3002;42.642;24.812;2023-05-22T07:13:55;96207.88;;;25.76;39.93
5954;BME280;3002;42.642;24.812;2023-05-22T07:16:21;96205.44;;;26.53;38.69
5954;BME280;3002;42.642;24.812;2023-05-22T07:18:47;96176.44;;;26.20;39.52
5954;BME280;3002;42.642;24.812;2023-05-22T07:21:13;96206.22;;;26.50;38.20
5954;BME280;3002;42.642;24.812;2023-05-22T07:23:38;96208.69;;;27.28;36.84
5954;BME280;3002;42.642;24.812;2023-05-22T07:26:04;96203.50;;;29.40;35.51
5954;BME280;3002;42.642;24.812;2023-05-22T07:28:29;96206.47;;;30.03;33.53
5954;BME280;3002;42.642;24.812;2023-05-22T07:30:55;96207.81;;;30.85;32.07
5954;BME280;3002;42.642;24.812;2023-05-22T07:33:21;96200.19;;;30.70;32.13
5954;BME280;3002;42.642;24.812;2023-05-22T07:35:47;96203.47;;;29.71;31.93
5954;BME280;3002;42.642;24.812;2023-05-22T07:38:12;96208.00;;;30.08;32.86
5954;BME280;3002;42.642;24.812;2023-05-22T07:40:37;96201.75;;;30.27;32.10
5954;BME280;3002;42.642;24.812;2023-05-22T07:43:03;96201.72;;;30.04;32.45
5954;BME280;3002;42.642;24.812;2023-05-22T07:45:29;96191.47;;;29.81;34.01
5954;BME280;3002;42.642;24.812;2023-05-22T07:47:55;96200.41;;;29.65;33.18
5954;BME280;3002;42.642;24.812;2023-05-22T07:50:23;96204.13;;;27.63;36.03
5954;BME280;3002;42.642;24.812;2023-05-22T07:52:50;96204.28;;;27.41;36.64
5954;BME280;3002;42.642;24.812;2023-05-22T07:55:16;96211.84;;;27.89;36.44
5954;BME280;3002;42.642;24.812;2023-05-22T07:57:42;96207.94;;;28.32;35.16
5954;BME280;3002;42.642;24.812;2023-05-22T08:00:08;96203.03;;;29.15;34.04
5954;BME280;3002;42.642;24.812;2023-05-22T08:02:37;96204.16;;;28.52;34.73
5954;BME280;3002;42.642;24.812;2023-05-22T08:05:03;96209.38;;;27.98;36.96
5954;BME280;3002;42.642;24.812;2023-05-22T08:07:28;96207.94;;;28.28;37.67
5954;BME280;3002;42.642;24.812;2023-05-22T08:09:54;96203.81;;;29.73;36.50
5954;BME280;3002;42.642;24.812;2023-05-22T08:12:20;96205.19;;;30.11;34.52
5954;BME280;3002;42.642;24.812;2023-05-22T08:14:45;96203.97;;;31.55;33.80
5954;BME280;3002;42.642;24.812;2023-05-22T08:17:10;96207.16;;;30.98;34.12
5954;BME280;3002;42.642;24.812;2023-05-22T08:19:36;96209.56;;;31.52;32.50
5954;BME280;3002;42.642;24.812;2023-05-22T08:22:01;96201.94;;;31.39;33.02
5954;BME280;3002;42.642;24.812;2023-05-22T08:24:27;96195.00;;;31.31;33.17
5954;BME280;3002;42.642;24.812;2023-05-22T08:26:58;96194.34;;;30.21;34.07
5954;BME280;3002;42.642;24.812;2023-05-22T08:29:24;96203.31;;;29.24;36.83
5954;BME280;3002;42.642;24.812;2023-05-22T08:31:50;96198.38;;;29.39;36.82
5954;BME280;3002;42.642;24.812;2023-05-22T08:34:16;96202.81;;;30.10;35.92
5954;BME280;3002;42.642;24.812;2023-05-22T08:36:41;96202.50;;;30.04;35.37
5954;BME280;3002;42.642;24.812;2023-05-22T08:39:08;96205.16;;;30.98;34.88
5954;BME280;3002;42.642;24.812;2023-05-22T08:41:34;96194.28;;;30.48;35.98
5954;BME280;3002;42.642;24.812;2023-05-22T08:43:59;96201.22;;;30.13;35.68
5954;BME280;3002;42.642;24.812;2023-05-22T08:46:25;96197.94;;;31.40;34.86
5954;BME280;3002;42.642;24.812;2023-05-22T08:48:55;96198.66;;;31.77;35.08
5954;BME280;3002;42.642;24.812;2023-05-22T08:51:27;96197.53;;;31.58;33.59
5954;BME280;3002;42.642;24.812;2023-05-22T08:53:54;96201.66;;;29.84;36.16
5954;BME280;3002;42.642;24.812;2023-05-22T08:56:20;96195.97;;;29.95;36.28
5954;BME280;3002;42.642;24.812;2023-05-22T08:58:46;96185.72;;;29.68;37.16
5954;BME280;3002;42.642;24.812;2023-05-22T09:01:12;96184.00;;;30.01;37.36
5954;BME280;3002;42.642;24.812;2023-05-22T09:03:38;96182.25;;;28.38;38.45
5954;BME280;3002;42.642;24.812;2023-05-22T09:06:04;96181.72;;;28.09;38.25
5954;BME280;3002;42.642;24.812;2023-05-22T09:08:33;96191.81;;;28.64;37.58
5954;BME280;3002;42.642;24.812;2023-05-22T09:10:59;96201.09;;;28.02;39.61
5954;BME280;3002;42.642;24.812;2023-05-22T09:13:28;96199.41;;;27.63;40.40
5954;BME280;3002;42.642;24.812;2023-05-22T09:15:58;96193.91;;;28.53;38.95
5954;BME280;3002;42.642;24.812;2023-05-22T09:18:28;96179.44;;;28.79;38.67
5954;BME280;3002;42.642;24.812;2023-05-22T09:20:56;96178.78;;;27.86;40.25
5954;BME280;3002;42.642;24.812;2023-05-22T09:23:22;96195.28;;;27.34;41.55
5954;BME280;3002;42.642;24.812;2023-05-22T09:25:53;96196.81;;;27.42;41.30
5954;BME280;3002;42.642;24.812;2023-05-22T09:28:19;96183.81;;;27.94;40.09
5954;BME280;3002;42.642;24.812;2023-05-22T09:30:52;96200.13;;;28.61;39.26
5954;BME280;3002;42.642;24.812;2023-05-22T09:33:18;96192.69;;;30.90;36.16
5954;BME280;3002;42.642;24.812;2023-05-22T09:35:47;96186.78;;;31.08;35.60
5954;BME280;3002;42.642;24.812;2023-05-22T09:38:14;96190.50;;;27.97;39.37
5954;BME280;3002;42.642;24.812;2023-05-22T09:40:40;96185.72;;;26.72;41.87
5954;BME280;3002;42.642;24.812;2023-05-22T09:43:09;96186.59;;;27.94;40.40
5954;BME280;3002;42.642;24.812;2023-05-22T09:45:35;96174.69;;;28.46;39.13
5954;BME280;3002;42.642;24.812;2023-05-22T09:48:04;96192.44;;;29.67;37.36
5954;BME280;3002;42.642;24.812;2023-05-22T09:50:31;96189.00;;;26.28;41.64
5954;BME280;3002;42.642;24.812;2023-05-22T09:53:00;96183.00;;;27.49;41.57
5954;BME280;3002;42.642;24.812;2023-05-22T09:55:27;96175.19;;;26.49;43.93
5954;BME280;3002;42.642;24.812;2023-05-22T09:57:53;96192.19;;;25.87;43.47
5954;BME280;3002;42.642;24.812;2023-05-22T10:00:21;96179.09;;;26.59;40.96
5954;BME280;3002;42.642;24.812;2023-05-22T10:03:08;96196.78;;;27.45;40.51
5954;BME280;3002;42.642;24.812;2023-05-22T10:05:36;96187.94;;;27.13;41.72
5954;BME280;3002;42.642;24.812;2023-05-22T10:08:09;96193.72;;;26.06;42.69
5954;BME280;3002;42.642;24.812;2023-05-22T10:10:35;96169.63;;;26.67;40.86
5954;BME280;3002;42.642;24.812;2023-05-22T10:13:03;96183.09;;;27.90;39.74
5954;BME280;3002;42.642;24.812;2023-05-22T10:15:33;96181.81;;;28.43;38.19
5954;BME280;3002;42.642;24.812;2023-05-22T10:17:59;96177.03;;;28.82;37.30
5954;BME280;3002;42.642;24.812;2023-05-22T10:20:28;96183.47;;;29.05;37.90
5954;BME280;3002;42.642;24.812;2023-05-22T10:22:54;96179.78;;;28.47;38.87
5954;BME280;3002;42.642;24.812;2023-05-22T10:25:20;96187.22;;;28.85;38.36
5954;BME280;3002;42.642;24.812;2023-05-22T10:27:53;96182.06;;;28.56;38.41
5954;BME280;3002;42.642;24.812;2023-05-22T10:33:13;96171.59;;;27.47;39.55
5954;BME280;3002;42.642;24.812;2023-05-22T10:38:39;96188.66;;;27.20;40.85
5954;BME280;3002;42.642;24.812;2023-05-22T10:41:08;96180.19;;;27.56;40.44
5954;BME280;3002;42.642;24.812;2023-05-22T10:43:39;96164.72;;;27.14;41.78
5954;BME280;3002;42.642;24.812;2023-05-22T10:46:06;96182.81;;;27.04;41.30
5954;BME280;3002;42.642;24.812;2023-05-22T10:48:42;96176.69;;;26.72;41.93
5954;BME280;3002;42.642;24.812;2023-05-22T10:51:11;96179.88;;;26.59;43.63
5954;BME280;3002;42.642;24.812;2023-05-22T10:53:37;96172.72;;;26.80;42.56
5954;BME280;3002;42.642;24.812;2023-05-22T10:56:12;96149.47;;;26.95;41.90
5954;BME280;3002;42.642;24.812;2023-05-22T10:58:39;96167.47;;;27.17;42.58
5954;BME280;3002;42.642;24.812;2023-05-22T11:01:16;96162.16;;;26.67;44.56
5954;BME280;3002;42.642;24.812;2023-05-22T11:11:41;96147.38;;;26.19;43.52
5954;BME280;3002;42.642;24.812;2023-05-22T11:14:07;96151.34;;;25.89;44.13
5954;BME280;3002;42.642;24.812;2023-05-22T11:16:32;96145.69;;;26.64;44.31
5954;BME280;3002;42.642;24.812;2023-05-22T11:19:05;96135.50;;;26.57;44.27
5954;BME280;3002;42.642;24.812;2023-05-22T11:21:43;96136.91;;;26.90;44.45
5954;BME280;3002;42.642;24.812;2023-05-22T11:24:14;96117.78;;;26.62;44.64
5954;BME280;3002;42.642;24.812;2023-05-22T11:26:41;96113.97;;;26.34;43.76
5954;BME280;3002;42.642;24.812;2023-05-22T11:29:07;96102.78;;;28.60;38.28
5954;BME280;3002;42.642;24.812;2023-05-22T11:31:34;96103.16;;;30.37;33.28
5954;BME280;3002;42.642;24.812;2023-05-22T11:34:01;96119.78;;;29.70;35.08
5954;BME280;3002;42.642;24.812;2023-05-22T11:36:27;96109.19;;;30.32;34.61
5954;BME280;3002;42.642;24.812;2023-05-22T11:38:59;96107.41;;;30.22;37.58
5954;BME280;3002;42.642;24.812;2023-05-22T11:41:34;96098.31;;;29.78;37.79
5954;BME280;3002;42.642;24.812;2023-05-22T11:44:00;96090.63;;;27.82;37.72
5954;BME280;3002;42.642;24.812;2023-05-22T11:46:26;96112.03;;;27.71;38.43
5954;BME280;3002;42.642;24.812;2023-05-22T11:48:51;96113.47;;;26.64;41.48
5954;BME280;3002;42.642;24.812;2023-05-22T11:51:19;96116.44;;;25.75;43.41
5954;BME280;3002;42.642;24.812;2023-05-22T11:53:46;96097.22;;;25.75;42.05
5954;BME280;3002;42.642;24.812;2023-05-22T11:56:12;96116.34;;;24.97;45.80
5954;BME280;3002;42.642;24.812;2023-05-22T11:58:37;96110.06;;;24.93;49.60
5954;BME280;3002;42.642;24.812;2023-05-22T12:01:05;96123.09;;;25.67;46.97
5954;BME280;3002;42.642;24.812;2023-05-22T12:03:31;96116.75;;;26.13;46.46
5954;BME280;3002;42.642;24.812;2023-05-22T12:05:57;96145.38;;;26.33;47.11
5954;BME280;3002;42.642;24.812;2023-05-22T12:08:26;96154.00;;;26.35;47.77
5954;BME280;3002;42.642;24.812;2023-05-22T12:10:53;96152.88;;;26.22;48.46
5954;BME280;3002;42.642;24.812;2023-05-22T12:13:28;96150.41;;;26.63;49.22
5954;BME280;3002;42.642;24.812;2023-05-22T12:15:57;96170.34;;;27.55;47.41
5954;BME280;3002;42.642;24.812;2023-05-22T12:18:24;96132.75;;;27.31;48.17
5954;BME280;3002;42.642;24.812;2023-05-22T12:20:56;96170.66;;;26.98;48.78
5954;BME280;3002;42.642;24.812;2023-05-22T12:23:23;96171.34;;;26.11;49.73
5954;BME280;3002;42.642;24.812;2023-05-22T12:25:56;96182.75;;;25.81;50.37
5954;BME280;3002;42.642;24.812;2023-05-22T12:28:22;96183.88;;;25.73;51.03
5954;BME280;3002;42.642;24.812;2023-05-22T12:30:51;96194.66;;;24.76;53.47
5954;BME280;3002;42.642;24.812;2023-05-22T12:33:17;96214.94;;;23.55;56.67
5954;BME280;3002;42.642;24.812;2023-05-22T12:35:43;96212.19;;;22.80;62.02
5954;BME280;3002;42.642;24.812;2023-05-22T12:38:09;96193.78;;;21.94;67.24
5954;BME280;3002;42.642;24.812;2023-05-22T12:40:35;96240.50;;;21.89;70.96
5954;BME280;3002;42.642;24.812;2023-05-22T12:43:00;96225.56;;;20.95;76.00
5954;BME280;3002;42.642;24.812;2023-05-22T12:45:26;96242.00;;;20.98;88.93
5954;BME280;3002;42.642;24.812;2023-05-22T12:47:51;96223.47;;;20.49;94.78
5954;BME280;3002;42.642;24.812;2023-05-22T12:50:17;96215.47;;;20.95;85.51
5954;BME280;3002;42.642;24.812;2023-05-22T12:52:42;96210.88;;;20.99;80.40
5954;BME280;3002;42.642;24.812;2023-05-22T12:55:09;96223.88;;;22.21;74.98
5954;BME280;3002;42.642;24.812;2023-05-22T12:57:34;96212.31;;;22.61;75.58
5954;BME280;3002;42.642;24.812;2023-05-22T13:00:00;96218.81;;;23.13;76.72
5954;BME280;3002;42.642;24.812;2023-05-22T13:02:25;96201.19;;;23.47;73.46
5954;BME280;3002;42.642;24.812;2023-05-22T13:04:51;96202.94;;;24.18;64.29
5954;BME280;3002;42.642;24.812;2023-05-22T13:07:16;96180.59;;;24.85;64.98
5954;BME280;3002;42.642;24.812;2023-05-22T13:09:42;96177.00;;;24.70;62.69
5954;BME280;3002;42.642;24.812;2023-05-22T13:12:07;96171.06;;;24.54;62.12
5954;BME280;3002;42.642;24.812;2023-05-22T13:14:35;96167.31;;;25.01;62.20
5954;BME280;3002;42.642;24.812;2023-05-22T13:17:03;96159.56;;;25.39;57.65
5954;BME280;3002;42.642;24.812;2023-05-22T13:19:28;96172.22;;;24.49;55.84
5954;BME280;3002;42.642;24.812;2023-05-22T13:21:53;96147.66;;;24.89;55.40
5954;BME280;3002;42.642;24.812;2023-05-22T13:24:19;96156.81;;;25.35;54.54
5954;BME280;3002;42.642;24.812;2023-05-22T13:26:44;96154.91;;;25.86;52.82
5954;BME280;3002;42.642;24.812;2023-05-22T13:29:10;96148.94;;;26.23;51.97
5954;BME280;3002;42.642;24.812;2023-05-22T13:31:35;96160.38;;;26.00;53.33